sensor_id;sensor_type;location;lat;lon;timestamp;pressure;altitude;pressure_sealevel;temperature;humidity
53908;BME280;40469;47.998;7.794;2023-11-18T00:01:33;99926.09;;;4.49;100.00
53908;BME280;40469;47.998;7.794;2023-11-18T00:03:59;99928.13;;;4.59;100.00
53908;BME280;40469;47.998;7.794;2023-11-18T00:06:24;99926.47;;;4.61;100.00
53908;BME280;40469;47.998;7.794;2023-11-18T00:08:50;99920.09;;;4.50;100.00
53908;BME280;40469;47.998;7.794;2023-11-18T00:11:15;99927.84;;;4.50;100.00
53908;BME280;40469;47.998;7.794;2023-11-18T00:13:41;99922.72;;;4.51;100.00
53908;BME280;40469;47.998;7.794;2023-11-18T00:16:09;99931.28;;;4.49;100.00
53908;BME280;40469;47.998;7.794;2023-11-18T00:18:38;99925.47;;;4.56;100.00
53908;BME280;40469;47.998;7.794;2023-11-18T00:21:05;99925.50;;;4.58;100.00
53908;BME280;40469;47.998;7.794;2023-11-18T00:23:30;99925.72;;;4.36;100.00
53908;BME280;40469;47.998;7.794;2023-11-18T00:25:56;99922.81;;;4.26;100.00
53908;BME280;40469;47.998;7.794;2023-11-18T00:28:21;99935.66;;;4.23;100.00
53908;BME280;40469;47.998;7.794;2023-11-18T00:30:47;99938.41;;;4.29;100.00
53908;BME280;40469;47.998;7.794;2023-11-18T00:33:12;99937.69;;;4.33;100.00
53908;BME280;40469;47.998;7.794;2023-11-18T00:35:38;99936.78;;;4.31;100.00
53908;BME280;40469;47.998;7.794;2023-11-18T00:38:03;99931.13;;;4.15;100.00
53908;BME280;40469;47.998;7.794;2023-11-18T00:40:29;99935.50;;;4.18;100.00
53908;BME280;40469;47.998;7.794;2023-11-18T00:42:55;99934.97;;;4.01;100.00
53908;BME280;40469;47.998;7.794;2023-11-18T00:45:21;99932.28;;;3.98;100.00
53908;BME280;40469;47.998;7.794;2023-11-18T00:47:46;99925.56;;;4.03;100.00
53908;BME280;40469;47.998;7.794;2023-11-18T00:50:12;99923.13;;;4.08;100.00
53908;BME280;40469;47.998;7.794;2023-11-18T00:52:38;99920.19;;;3.97;100.00
53908;BME280;40469;47.998;7.794;2023-11-18T00:55:07;99920.78;;;3.88;100.00
53908;BME280;40469;47.998;7.794;2023-11-18T00:57:33;99926.75;;;3.87;100.00
53908;BME280;40469;47.998;7.794;2023-11-18T00:59:59;99919.06;;;3.89;100.00
53908;BME280;40469;47.998;7.794;2023-11-18T01:02:24;99907.66;;;3.82;100.00
53908;BME280;40469;47.998;7.794;2023-11-18T01:04:49;99906.63;;;3.77;100.00
53908;BME280;40469;47.998;7.794;2023-11-18T01:07:15;99909.25;;;3.78;100.00
53908;BME280;40469;47.998;7.794;2023-11-18T01:09:41;99917.13;;;3.82;100.00
53908;BME280;40469;47.998;7.794;2023-11-18T01:12:06;99913.63;;;3.79;100.00
53908;BME280;40469;47.998;7.794;2023-11-18T01:14:38;99912.88;;;3.84;100.00
53908;BME280;40469;47.998;7.794;2023-11-18T01:17:07;99915.16;;;3.74;100.00
53908;BME280;40469;47.998;7.794;2023-11-18T01:19:34;99914.59;;;3.83;100.00
53908;BME280;40469;47.998;7.794;2023-11-18T01:22:00;99909.50;;;3.86;100.00
53908;BME280;40469;47.998;7.794;2023-11-18T01:24:25;99911.38;;;3.90;100.00
53908;BME280;40469;47.998;7.794;2023-11-18T01:26:51;99921.66;;;3.89;100.00
53908;BME280;40469;47.998;7.794;2023-11-18T01:29:16;99912.06;;;3.86;100.00
53908;BME280;40469;47.998;7.794;2023-11-18T01:31:42;99915.63;;;3.88;100.00
53908;BME280;40469;47.998;7.794;2023-11-18T01:34:07;99916.47;;;3.89;100.00
53908;BME280;40469;47.998;7.794;2023-11-18T01:36:33;99931.13;;;3.88;100.00
53908;BME280;40469;47.998;7.794;2023-11-18T01:38:59;99936.22;;;3.87;100.00
53908;BME280;40469;47.998;7.794;2023-11-18T01:41:25;99925.84;;;3.85;100.00
53908;BME280;40469;47.998;7.794;2023-11-18T01:43:50;99923.31;;;3.87;100.00
53908;BME280;40469;47.998;7.794;2023-11-18T01:46:16;99926.66;;;3.84;100.00
53908;BME280;40469;47.998;7.794;2023-11-18T01:48:43;99925.91;;;3.87;100.00
53908;BME280;40469;47.998;7.794;2023-11-18T01:51:09;99926.88;;;3.90;100.00
53908;BME280;40469;47.998;7.794;2023-11-18T01:53:38;99927.63;;;3.88;100.00
53908;BME280;40469;47.998;7.794;2023-11-18T01:56:05;99918.28;;;3.91;100.00
53908;BME280;40469;47.998;7.794;2023-11-18T01:58:33;99915.81;;;3.94;100.00
53908;BME280;40469;47.998;7.794;2023-11-18T02:01:01;99912.88;;;3.84;100.00
53908;BME280;40469;47.998;7.794;2023-11-18T02:03:27;99916.38;;;3.86;100.00
53908;BME280;40469;47.998;7.794;2023-11-18T02:05:53;99920.38;;;3.76;100.00
53908;BME280;40469;47.998;7.794;2023-11-18T02:08:19;99918.50;;;3.72;100.00
53908;BME280;40469;47.998;7.794;2023-11-18T02:10:51;99920.16;;;3.70;100.00
53908;BME280;40469;47.998;7.794;2023-11-18T02:13:23;99919.34;;;3.71;100.00
53908;BME280;40469;47.998;7.794;2023-11-18T02:15:56;99916.56;;;3.65;100.00
53908;BME280;40469;47.998;7.794;2023-11-18T02:18:25;99924.34;;;3.66;100.00
53908;BME280;40469;47.998;7.794;2023-11-18T02:20:53;99919.13;;;3.65;100.00
53908;BME280;40469;47.998;7.794;2023-11-18T02:23:20;99921.09;;;3.72;100.00
53908;BME280;40469;47.998;7.794;2023-11-18T02:25:47;99923.63;;;3.70;100.00
53908;BME280;40469;47.998;7.794;2023-11-18T02:28:13;99928.53;;;3.63;100.00
53908;BME280;40469;47.998;7.794;2023-11-18T02:30:39;99927.72;;;3.64;100.00
53908;BME280;40469;47.998;7.794;2023-11-18T02:36:32;99929.47;;;3.65;100.00
53908;BME280;40469;47.998;7.794;2023-11-18T02:39:05;99924.16;;;3.60;100.00
53908;BME280;40469;47.998;7.794;2023-11-18T02:41:38;99904.25;;;3.57;100.00
53908;BME280;40469;47.998;7.794;2023-11-18T02:44:04;99905.06;;;3.56;100.00
53908;BME280;40469;47.998;7.794;2023-11-18T02:46:36;99902.34;;;3.52;100.00
53908;BME280;40469;47.998;7.794;2023-11-18T02:49:01;99904.94;;;3.52;100.00
53908;BME280;40469;47.998;7.794;2023-11-18T02:51:28;99914.19;;;3.45;100.00
53908;BME280;40469;47.998;7.794;2023-11-18T02:53:54;99913.25;;;3.43;100.00
53908;BME280;40469;47.998;7.794;2023-11-18T02:56:20;99914.84;;;3.39;100.00
53908;BME280;40469;47.998;7.794;2023-11-18T02:58:45;99920.31;;;3.49;100.00
53908;BME280;40469;47.998;7.794;2023-11-18T03:01:11;99929.84;;;3.50;100.00
53908;BME280;40469;47.998;7.794;2023-11-18T03:03:36;99921.88;;;3.44;100.00
53908;BME280;40469;47.998;7.794;2023-11-18T03:06:01;99917.63;;;3.46;100.00
53908;BME280;40469;47.998;7.794;2023-11-18T03:08:27;99921.00;;;3.43;100.00
53908;BME280;40469;47.998;7.794;2023-11-18T03:10:54;99915.84;;;3.43;100.00
53908;BME280;40469;47.998;7.794;2023-11-18T03:13:20;99905.50;;;3.43;100.00
53908;BME280;40469;47.998;7.794;2023-11-18T03:15:45;99895.94;;;3.40;100.00
53908;BME280;40469;47.998;7.794;2023-11-18T03:18:13;99899.38;;;3.39;100.00
53908;BME280;40469;47.998;7.794;2023-11-18T03:20:40;99895.75;;;3.34;100.00
53908;BME280;40469;47.998;7.794;2023-11-18T03:23:05;99897.47;;;3.34;100.00
53908;BME280;40469;47.998;7.794;2023-11-18T03:25:33;99911.13;;;3.31;100.00
53908;BME280;40469;47.998;7.794;2023-11-18T03:27:58;99927.34;;;3.27;100.00
53908;BME280;40469;47.998;7.794;2023-11-18T03:30:24;99919.41;;;3.22;100.00
53908;BME280;40469;47.998;7.794;2023-11-18T03:32:49;99932.31;;;3.22;100.00
53908;BME280;40469;47.998;7.794;2023-11-18T03:35:15;99934.59;;;3.13;100.00
53908;BME280;40469;47.998;7.794;2023-11-18T03:37:41;99928.63;;;3.14;100.00
53908;BME280;40469;47.998;7.794;2023-11-18T03:40:13;99920.03;;;3.15;100.00
53908;BME280;40469;47.998;7.794;2023-11-18T03:42:40;99926.84;;;3.13;100.00
53908;BME280;40469;47.998;7.794;2023-11-18T03:45:06;99929.53;;;3.16;100.00
53908;BME280;40469;47.998;7.794;2023-11-18T03:47:32;99931.94;;;3.12;100.00
53908;BME280;40469;47.998;7.794;2023-11-18T03:49:59;99932.72;;;3.09;100.00
53908;BME280;40469;47.998;7.794;2023-11-18T03:52:24;99925.00;;;3.09;100.00
53908;BME280;40469;47.998;7.794;2023-11-18T03:54:49;99923.38;;;3.13;100.00
53908;BME280;40469;47.998;7.794;2023-11-18T03:57:15;99926.53;;;3.04;100.00
53908;BME280;40469;47.998;7.794;2023-11-18T03:59:40;99916.16;;;3.02;100.00
53908;BME280;40469;47.998;7.794;2023-11-18T04:02:06;99920.50;;;3.05;100.00
53908;BME280;40469;47.998;7.794;2023-11-18T04:04:32;99918.97;;;3.10;100.00
53908;BME280;40469;47.998;7.794;2023-11-18T04:06:57;99924.75;;;3.03;100.00
53908;BME280;40469;47.998;7.794;2023-11-18T04:09:22;99925.13;;;3.14;100.00
53908;BME280;40469;47.998;7.794;2023-11-18T04:11:48;99914.75;;;3.12;100.00
53908;BME280;40469;47.998;7.794;2023-11-18T04:14:14;99915.78;;;3.17;100.00
53908;BME280;40469;47.998;7.794;2023-11-18T04:16:39;99918.31;;;3.16;100.00
53908;BME280;40469;47.998;7.794;2023-11-18T04:19:04;99924.09;;;3.09;100.00
53908;BME280;40469;47.998;7.794;2023-11-18T04:21:31;99920.81;;;3.13;100.00
53908;BME280;40469;47.998;7.794;2023-11-18T04:23:56;99925.97;;;3.13;100.00
53908;BME280;40469;47.998;7.794;2023-11-18T04:26:21;99934.81;;;3.19;100.00
53908;BME280;40469;47.998;7.794;2023-11-18T04:28:47;99940.56;;;3.12;100.00
53908;BME280;40469;47.998;7.794;2023-11-18T04:31:12;99945.63;;;3.09;100.00
53908;BME280;40469;47.998;7.794;2023-11-18T04:33:38;99946.69;;;3.14;100.00
53908;BME280;40469;47.998;7.794;2023-11-18T04:36:06;99944.03;;;3.13;100.00
53908;BME280;40469;47.998;7.794;2023-11-18T04:38:35;99942.19;;;3.10;100.00
53908;BME280;40469;47.998;7.794;2023-11-18T04:41:01;99939.84;;;3.16;100.00
53908;BME280;40469;47.998;7.794;2023-11-18T04:43:28;99932.94;;;3.15;100.00
53908;BME280;40469;47.998;7.794;2023-11-18T04:45:54;99927.78;;;3.15;100.00
53908;BME280;40469;47.998;7.794;2023-11-18T04:48:19;99924.38;;;3.16;100.00
53908;BME280;40469;47.998;7.794;2023-11-18T04:50:46;99910.81;;;3.22;100.00
53908;BME280;40469;47.998;7.794;2023-11-18T04:53:12;99912.53;;;3.21;100.00
53908;BME280;40469;47.998;7.794;2023-11-18T04:55:38;99906.50;;;3.22;100.00
53908;BME280;40469;47.998;7.794;2023-11-18T04:58:03;99899.69;;;3.25;100.00
53908;BME280;40469;47.998;7.794;2023-11-18T05:00:31;99890.28;;;3.25;100.00
53908;BME280;40469;47.998;7.794;2023-11-18T05:02:57;99883.22;;;3.21;100.00
53908;BME280;40469;47.998;7.794;2023-11-18T05:05:23;99884.28;;;3.26;100.00
53908;BME280;40469;47.998;7.794;2023-11-18T05:07:48;99875.66;;;3.26;100.00
53908;BME280;40469;47.998;7.794;2023-11-18T05:10:13;99876.75;;;3.32;100.00
53908;BME280;40469;47.998;7.794;2023-11-18T05:12:39;99872.50;;;3.34;100.00
53908;BME280;40469;47.998;7.794;2023-11-18T05:15:06;99880.03;;;3.28;100.00
53908;BME280;40469;47.998;7.794;2023-11-18T05:17:36;99883.56;;;3.30;100.00
53908;BME280;40469;47.998;7.794;2023-11-18T05:20:03;99882.63;;;3.28;100.00
53908;BME280;40469;47.998;7.794;2023-11-18T05:22:29;99883.28;;;3.22;100.00
53908;BME280;40469;47.998;7.794;2023-11-18T05:24:54;99876.53;;;3.26;100.00
53908;BME280;40469;47.998;7.794;2023-11-18T05:27:19;99886.84;;;3.26;100.00
53908;BME280;40469;47.998;7.794;2023-11-18T05:29:45;99886.78;;;3.23;100.00
53908;BME280;40469;47.998;7.794;2023-11-18T05:32:13;99887.41;;;3.17;100.00
53908;BME280;40469;47.998;7.794;2023-11-18T05:34:39;99890.22;;;3.23;100.00
53908;BME280;40469;47.998;7.794;2023-11-18T05:37:04;99882.38;;;3.20;100.00
53908;BME280;40469;47.998;7.794;2023-11-18T05:39:29;99878.00;;;3.18;100.00
53908;BME280;40469;47.998;7.794;2023-11-18T05:41:57;99891.81;;;3.20;100.00
53908;BME280;40469;47.998;7.794;2023-11-18T05:44:23;99879.06;;;3.25;100.00
53908;BME280;40469;47.998;7.794;2023-11-18T05:46:58;99872.28;;;3.27;100.00
53908;BME280;40469;47.998;7.794;2023-11-18T05:49:24;99868.03;;;3.29;100.00
53908;BME280;40469;47.998;7.794;2023-11-18T05:51:49;99862.81;;;3.27;100.00
53908;BME280;40469;47.998;7.794;2023-11-18T05:54:15;99863.00;;;3.33;100.00
53908;BME280;40469;47.998;7.794;2023-11-18T05:56:40;99856.91;;;3.31;100.00
53908;BME280;40469;47.998;7.794;2023-11-18T05:59:06;99854.38;;;3.33;100.00
53908;BME280;40469;47.998;7.794;2023-11-18T06:01:33;99856.97;;;3.33;100.00
53908;BME280;40469;47.998;7.794;2023-11-18T06:03:59;99854.38;;;3.33;100.00
53908;BME280;40469;47.998;7.794;2023-11-18T06:06:26;99858.00;;;3.38;100.00
53908;BME280;40469;47.998;7.794;2023-11-18T06:08:51;99859.78;;;3.40;100.00
53908;BME280;40469;47.998;7.794;2023-11-18T06:11:17;99858.78;;;3.35;100.00
53908;BME280;40469;47.998;7.794;2023-11-18T06:13:48;99859.66;;;3.36;100.00
53908;BME280;40469;47.998;7.794;2023-11-18T06:16:18;99853.72;;;3.38;100.00
53908;BME280;40469;47.998;7.794;2023-11-18T06:18:48;99858.13;;;3.41;100.00
53908;BME280;40469;47.998;7.794;2023-11-18T06:21:15;99855.59;;;3.42;100.00
53908;BME280;40469;47.998;7.794;2023-11-18T06:23:42;99871.03;;;3.41;100.00
53908;BME280;40469;47.998;7.794;2023-11-18T06:26:08;99875.25;;;3.39;100.00
53908;BME280;40469;47.998;7.794;2023-11-18T06:28:43;99878.91;;;3.46;100.00
53908;BME280;40469;47.998;7.794;2023-11-18T06:31:10;99878.97;;;3.47;100.00
53908;BME280;40469;47.998;7.794;2023-11-18T06:33:42;99874.78;;;3.51;100.00
53908;BME280;40469;47.998;7.794;2023-11-18T06:38:42;99872.25;;;3.52;100.00
53908;BME280;40469;47.998;7.794;2023-11-18T06:41:09;99881.81;;;3.55;100.00
53908;BME280;40469;47.998;7.794;2023-11-18T06:43:37;99880.97;;;3.56;100.00
53908;BME280;40469;47.998;7.794;2023-11-18T06:46:22;99875.19;;;3.63;100.00
53908;BME280;40469;47.998;7.794;2023-11-18T06:48:48;99871.84;;;3.66;100.00
53908;BME280;40469;47.998;7.794;2023-11-18T06:51:15;99867.47;;;3.65;100.00
53908;BME280;40469;47.998;7.794;2023-11-18T06:53:41;99863.41;;;3.71;100.00
53908;BME280;40469;47.998;7.794;2023-11-18T06:56:07;99867.06;;;3.78;100.00
53908;BME280;40469;47.998;7.794;2023-11-18T06:58:32;99874.88;;;3.79;100.00
53908;BME280;40469;47.998;7.794;2023-11-18T07:00:59;99880.09;;;3.83;100.00
53908;BME280;40469;47.998;7.794;2023-11-18T07:03:24;99879.19;;;3.80;100.00
53908;BME280;40469;47.998;7.794;2023-11-18T07:05:49;99876.72;;;3.84;100.00
53908;BME280;40469;47.998;7.794;2023-11-18T07:08:15;99881.09;;;3.86;100.00
53908;BME280;40469;47.998;7.794;2023-11-18T07:10:40;99888.94;;;3.89;100.00
53908;BME280;40469;47.998;7.794;2023-11-18T07:13:06;99894.84;;;3.85;100.00
53908;BME280;40469;47.998;7.794;2023-11-18T07:15:34;99897.38;;;3.84;100.00
53908;BME280;40469;47.998;7.794;2023-11-18T07:17:59;99898.97;;;3.80;100.00
53908;BME280;40469;47.998;7.794;2023-11-18T07:20:26;99897.38;;;3.84;100.00
53908;BME280;40469;47.998;7.794;2023-11-18T07:22:52;99901.75;;;3.86;100.00
53908;BME280;40469;47.998;7.794;2023-11-18T07:25:17;99907.88;;;3.88;100.00
53908;BME280;40469;47.998;7.794;2023-11-18T07:27:43;99901.97;;;3.92;100.00
53908;BME280;40469;47.998;7.794;2023-11-18T07:30:08;99903.84;;;3.98;100.00
53908;BME280;40469;47.998;7.794;2023-11-18T07:32:36;99908.22;;;4.01;100.00
53908;BME280;40469;47.998;7.794;2023-11-18T07:35:01;99903.97;;;4.01;100.00
53908;BME280;40469;47.998;7.794;2023-11-18T07:37:27;99891.91;;;4.02;100.00
53908;BME280;40469;47.998;7.794;2023-11-18T07:39:52;99882.44;;;4.02;100.00
53908;BME280;40469;47.998;7.794;2023-11-18T07:42:18;99884.25;;;4.05;100.00
53908;BME280;40469;47.998;7.794;2023-11-18T07:44:44;99882.53;;;4.05;100.00
53908;BME280;40469;47.998;7.794;2023-11-18T07:47:10;99882.69;;;4.10;100.00
53908;BME280;40469;47.998;7.794;2023-11-18T07:49:36;99886.19;;;4.12;100.00
53908;BME280;40469;47.998;7.794;2023-11-18T07:52:02;99887.34;;;4.22;100.00
53908;BME280;40469;47.998;7.794;2023-11-18T07:54:28;99896.00;;;4.22;100.00
53908;BME280;40469;47.998;7.794;2023-11-18T07:56:53;99896.88;;;4.23;100.00
53908;BME280;40469;47.998;7.794;2023-11-18T07:59:19;99892.56;;;4.23;100.00
53908;BME280;40469;47.998;7.794;2023-11-18T08:01:45;99896.97;;;4.26;100.00
53908;BME280;40469;47.998;7.794;2023-11-18T08:04:12;99891.84;;;4.27;100.00
53908;BME280;40469;47.998;7.794;2023-11-18T08:06:39;99886.75;;;4.30;100.00
53908;BME280;40469;47.998;7.794;2023-11-18T08:09:04;99880.31;;;4.45;100.00
53908;BME280;40469;47.998;7.794;2023-11-18T08:11:35;99867.41;;;4.46;100.00
53908;BME280;40469;47.998;7.794;2023-11-18T08:14:00;99864.13;;;4.52;100.00
53908;BME280;40469;47.998;7.794;2023-11-18T08:16:27;99860.91;;;4.59;100.00
53908;BME280;40469;47.998;7.794;2023-11-18T08:18:52;99857.59;;;4.65;100.00
53908;BME280;40469;47.998;7.794;2023-11-18T08:21:19;99864.56;;;4.67;100.00
53908;BME280;40469;47.998;7.794;2023-11-18T08:23:44;99863.13;;;4.77;100.00
53908;BME280;40469;47.998;7.794;2023-11-18T08:26:11;99857.19;;;4.81;100.00
53908;BME280;40469;47.998;7.794;2023-11-18T08:28:37;99854.19;;;4.98;100.00
53908;BME280;40469;47.998;7.794;2023-11-18T08:31:02;99849.09;;;5.01;100.00
53908;BME280;40469;47.998;7.794;2023-11-18T08:33:28;99849.13;;;5.02;100.00
53908;BME280;40469;47.998;7.794;2023-11-18T08:35:54;99851.03;;;5.09;100.00
53908;BME280;40469;47.998;7.794;2023-11-18T08:38:19;99845.03;;;5.10;100.00
53908;BME280;40469;47.998;7.794;2023-11-18T08:40:44;99844.28;;;5.15;100.00
53908;BME280;40469;47.998;7.794;2023-11-18T08:43:12;99865.84;;;5.13;100.00
53908;BME280;40469;47.998;7.794;2023-11-18T08:45:37;99865.22;;;5.24;100.00
53908;BME280;40469;47.998;7.794;2023-11-18T08:48:04;99865.28;;;5.25;100.00
53908;BME280;40469;47.998;7.794;2023-11-18T08:50:33;99852.47;;;5.30;100.00
53908;BME280;40469;47.998;7.794;2023-11-18T08:52:59;99850.13;;;5.41;100.00
53908;BME280;40469;47.998;7.794;2023-11-18T08:55:26;99840.59;;;5.40;100.00
53908;BME280;40469;47.998;7.794;2023-11-18T08:58:07;99838.22;;;5.47;100.00
53908;BME280;40469;47.998;7.794;2023-11-18T09:00:57;99833.94;;;5.49;100.00
53908;BME280;40469;47.998;7.794;2023-11-18T09:03:39;99839.91;;;5.47;100.00
53908;BME280;40469;47.998;7.794;2023-11-18T09:06:09;99844.34;;;5.51;100.00
53908;BME280;40469;47.998;7.794;2023-11-18T09:08:45;99839.56;;;5.68;100.00
53908;BME280;40469;47.998;7.794;2023-11-18T09:11:13;99824.25;;;5.79;100.00
53908;BME280;40469;47.998;7.794;2023-11-18T09:13:46;99820.69;;;5.72;100.00
53908;BME280;40469;47.998;7.794;2023-11-18T09:16:19;99820.09;;;5.85;100.00
53908;BME280;40469;47.998;7.794;2023-11-18T09:18:47;99815.19;;;5.96;100.00
53908;BME280;40469;47.998;7.794;2023-11-18T09:21:13;99819.50;;;5.96;100.00
53908;BME280;40469;47.998;7.794;2023-11-18T09:23:45;99822.25;;;6.03;100.00
53908;BME280;40469;47.998;7.794;2023-11-18T09:26:13;99826.50;;;6.00;100.00
53908;BME280;40469;47.998;7.794;2023-11-18T09:28:40;99830.22;;;6.11;100.00
53908;BME280;40469;47.998;7.794;2023-11-18T09:31:06;99845.78;;;6.11;100.00
53908;BME280;40469;47.998;7.794;2023-11-18T09:33:37;99855.38;;;6.15;100.00
53908;BME280;40469;47.998;7.794;2023-11-18T09:36:06;99864.97;;;6.18;100.00
53908;BME280;40469;47.998;7.794;2023-11-18T09:38:36;99858.13;;;6.21;100.00
53908;BME280;40469;47.998;7.794;2023-11-18T09:41:03;99854.56;;;6.16;100.00
53908;BME280;40469;47.998;7.794;2023-11-18T09:43:33;99852.13;;;6.24;100.00
53908;BME280;40469;47.998;7.794;2023-11-18T09:46:06;99852.97;;;6.24;100.00
53908;BME280;40469;47.998;7.794;2023-11-18T09:48:45;99863.34;;;6.23;100.00
53908;BME280;40469;47.998;7.794;2023-11-18T09:51:14;99868.78;;;6.35;100.00
53908;BME280;40469;47.998;7.794;2023-11-18T09:53:44;99866.25;;;6.38;100.00
53908;BME280;40469;47.998;7.794;2023-11-18T09:56:17;99863.78;;;6.43;100.00
53908;BME280;40469;47.998;7.794;2023-11-18T09:58:57;99866.31;;;6.41;100.00
53908;BME280;40469;47.998;7.794;2023-11-18T10:01:28;99865.50;;;6.44;100.00
53908;BME280;40469;47.998;7.794;2023-11-18T10:03:58;99861.19;;;6.43;100.00
53908;BME280;40469;47.998;7.794;2023-11-18T10:06:23;99859.53;;;6.47;100.00
53908;BME280;40469;47.998;7.794;2023-11-18T10:08:52;99862.22;;;6.51;100.00
53908;BME280;40469;47.998;7.794;2023-11-18T10:11:19;99857.97;;;6.56;100.00
53908;BME280;40469;47.998;7.794;2023-11-18T10:13:48;99854.44;;;6.53;100.00
53908;BME280;40469;47.998;7.794;2023-11-18T10:16:14;99862.22;;;6.53;100.00
53908;BME280;40469;47.998;7.794;2023-11-18T10:18:39;99856.88;;;6.45;100.00
53908;BME280;40469;47.998;7.794;2023-11-18T10:21:14;99854.25;;;6.43;100.00
53908;BME280;40469;47.998;7.794;2023-11-18T10:23:58;99855.88;;;6.38;100.00
53908;BME280;40469;47.998;7.794;2023-11-18T10:26:25;99858.59;;;6.43;100.00
53908;BME280;40469;47.998;7.794;2023-11-18T10:28:52;99864.00;;;6.14;100.00
53908;BME280;40469;47.998;7.794;2023-11-18T10:31:19;99867.81;;;6.32;100.00
53908;BME280;40469;47.998;7.794;2023-11-18T10:33:45;99856.97;;;6.48;100.00
53908;BME280;40469;47.998;7.794;2023-11-18T10:36:19;99845.00;;;6.55;100.00
53908;BME280;40469;47.998;7.794;2023-11-18T10:38:50;99844.91;;;6.50;100.00
53908;BME280;40469;47.998;7.794;2023-11-18T10:41:18;99848.47;;;6.55;100.00
53908;BME280;40469;47.998;7.794;2023-11-18T10:43:43;99854.66;;;6.22;100.00
53908;BME280;40469;47.998;7.794;2023-11-18T10:46:11;99848.16;;;6.41;100.00
53908;BME280;40469;47.998;7.794;2023-11-18T10:48:44;99846.31;;;6.36;100.00
53908;BME280;40469;47.998;7.794;2023-11-18T10:51:14;99853.81;;;6.22;100.00
53908;BME280;40469;47.998;7.794;2023-11-18T10:53:42;99846.25;;;6.33;100.00
53908;BME280;40469;47.998;7.794;2023-11-18T10:56:22;99842.25;;;6.49;100.00
53908;BME280;40469;47.998;7.794;2023-11-18T10:58:55;99841.50;;;6.54;100.00
53908;BME280;40469;47.998;7.794;2023-11-18T11:01:28;99838.16;;;6.19;100.00
53908;BME280;40469;47.998;7.794;2023-11-18T11:03:54;99843.28;;;6.14;100.00
53908;BME280;40469;47.998;7.794;2023-11-18T11:06:26;99842.34;;;6.11;100.00
53908;BME280;40469;47.998;7.794;2023-11-18T11:08:56;99837.91;;;6.06;100.00
53908;BME280;40469;47.998;7.794;2023-11-18T11:11:25;99836.16;;;6.05;100.00
53908;BME280;40469;47.998;7.794;2023-11-18T11:13:56;99831.84;;;6.06;100.00
53908;BME280;40469;47.998;7.794;2023-11-18T11:16:28;99832.66;;;6.05;100.00
53908;BME280;40469;47.998;7.794;2023-11-18T11:19:02;99827.72;;;6.16;100.00
53908;BME280;40469;47.998;7.794;2023-11-18T11:21:37;99827.13;;;6.28;100.00
53908;BME280;40469;47.998;7.794;2023-11-18T11:27:11;99823.59;;;6.24;100.00
53908;BME280;40469;47.998;7.794;2023-11-18T11:30:02;99822.03;;;6.32;100.00
53908;BME280;40469;47.998;7.794;2023-11-18T11:32:45;99821.19;;;6.33;100.00
53908;BME280;40469;47.998;7.794;2023-11-18T11:35:23;99826.34;;;6.32;100.00
53908;BME280;40469;47.998;7.794;2023-11-18T11:37:48;99805.53;;;6.29;100.00
53908;BME280;40469;47.998;7.794;2023-11-18T11:40:15;99812.25;;;6.19;100.00
53908;BME280;40469;47.998;7.794;2023-11-18T11:42:48;99807.97;;;6.21;100.00
53908;BME280;40469;47.998;7.794;2023-11-18T11:45:20;99808.09;;;6.27;100.00
53908;BME280;40469;47.998;7.794;2023-11-18T11:47:49;99805.59;;;6.32;100.00
53908;BME280;40469;47.998;7.794;2023-11-18T11:50:21;99810.72;;;6.29;100.00
53908;BME280;40469;47.998;7.794;2023-11-18T11:53:04;99799.53;;;6.31;100.00
53908;BME280;40469;47.998;7.794;2023-11-18T11:55:43;99803.81;;;6.29;100.00
53908;BME280;40469;47.998;7.794;2023-11-18T11:58:29;99799.31;;;6.20;100.00
53908;BME280;40469;47.998;7.794;2023-11-18T12:00:58;99787.06;;;6.13;100.00
53908;BME280;40469;47.998;7.794;2023-11-18T12:03:24;99792.41;;;6.21;100.00
53908;BME280;40469;47.998;7.794;2023-11-18T12:05:54;99801.03;;;6.20;100.00
53908;BME280;40469;47.998;7.794;2023-11-18T12:08:22;99791.69;;;6.26;100.00
53908;BME280;40469;47.998;7.794;2023-11-18T12:10:52;99792.63;;;6.32;100.00
53908;BME280;40469;47.998;7.794;2023-11-18T12:13:19;99796.06;;;6.31;100.00
53908;BME280;40469;47.998;7.794;2023-11-18T12:15:49;99785.56;;;6.24;100.00
53908;BME280;40469;47.998;7.794;2023-11-18T12:18:20;99790.81;;;6.28;100.00
53908;BME280;40469;47.998;7.794;2023-11-18T12:20:47;99794.56;;;6.42;100.00
53908;BME280;40469;47.998;7.794;2023-11-18T12:23:13;99794.53;;;6.40;100.00
53908;BME280;40469;47.998;7.794;2023-11-18T12:25:40;99779.72;;;6.35;100.00
53908;BME280;40469;47.998;7.794;2023-11-18T12:28:16;99776.28;;;6.36;100.00
53908;BME280;40469;47.998;7.794;2023-11-18T12:30:43;99766.69;;;6.32;100.00
53908;BME280;40469;47.998;7.794;2023-11-18T12:33:17;99758.66;;;6.19;100.00
53908;BME280;40469;47.998;7.794;2023-11-18T12:41:00;99735.31;;;6.18;100.00
53908;BME280;40469;47.998;7.794;2023-11-18T12:48:44;99731.78;;;6.58;100.00
53908;BME280;40469;47.998;7.794;2023-11-18T12:51:12;99734.38;;;6.60;100.00
53908;BME280;40469;47.998;7.794;2023-11-18T12:53:47;99732.81;;;6.68;100.00
53908;BME280;40469;47.998;7.794;2023-11-18T12:56:15;99732.06;;;6.75;100.00
53908;BME280;40469;47.998;7.794;2023-11-18T12:58:42;99727.84;;;6.80;100.00
53908;BME280;40469;47.998;7.794;2023-11-18T13:01:08;99716.53;;;6.77;100.00
53908;BME280;40469;47.998;7.794;2023-11-18T13:03:42;99708.03;;;6.86;100.00
53908;BME280;40469;47.998;7.794;2023-11-18T13:06:09;99717.63;;;6.91;100.00
53908;BME280;40469;47.998;7.794;2023-11-18T13:08:35;99697.00;;;6.99;100.00
53908;BME280;40469;47.998;7.794;2023-11-18T13:11:01;99693.63;;;7.05;100.00
53908;BME280;40469;47.998;7.794;2023-11-18T13:13:28;99691.94;;;7.07;100.00
53908;BME280;40469;47.998;7.794;2023-11-18T13:15:55;99691.09;;;7.08;100.00
53908;BME280;40469;47.998;7.794;2023-11-18T13:18:20;99677.28;;;7.10;100.00
53908;BME280;40469;47.998;7.794;2023-11-18T13:20:58;99674.72;;;7.13;100.00
53908;BME280;40469;47.998;7.794;2023-11-18T13:23:27;99662.72;;;7.20;100.00